MSC Rania — 3EEB3 — position and weather

sailwx.info

Track history (hours):
 
Tides and Currents Weather Stations Pressure Air Temp Water Temp Dewpoint Dewpoint Depression Visibility Wind Speed Wind Dir Waves Ship Positions

MSC Rania

Last reported at 2016-Aug-20 09:32 UTC. Time now 2016-Aug-28 18:53 UTC.
Position N 01°56' E 102°17'.
Warning: this ship's position is 8 days out of date.

Length 332 m; draft 12.6 m.

Type: Ship (hazmat cat A). MMSI: 371752000.

Date/timePositionNaut miles runAvg speedWind from/ knotsBaromVisibWave heightAir tempDewpointWater temp
2016-Aug-20 09:32N 01°56' E 102°17'2121.6
2016-Aug-20 08:33N 01°47' E 102°36'7417.3
2016-Aug-20 04:15N 01°15' E 103°43'3 0.2
2016-Aug-19 13:32N 01°16' E 103°46'0 0.0
2016-Aug-19 12:32N 01°16' E 103°46'0 0.0
2016-Aug-19 11:32N 01°16' E 103°46'0 0.0
2016-Aug-19 10:32N 01°16' E 103°46'0 0.0
2016-Aug-19 09:20N 01°16' E 103°46'0 0.0
2016-Aug-19 08:32N 01°16' E 103°46'0 0.0
2016-Aug-19 07:29N 01°16' E 103°46'0 0.0
2016-Aug-19 06:32N 01°16' E 103°46'0 0.0
2016-Aug-19 05:32N 01°16' E 103°46'0 0.0
2016-Aug-19 04:26N 01°16' E 103°46'0 0.0
2016-Aug-19 03:26N 01°16' E 103°46'0 0.0
2016-Aug-19 02:32N 01°16' E 103°46'0 0.0
2016-Aug-19 01:32N 01°16' E 103°46'0 0.0
2016-Aug-19 00:33N 01°16' E 103°46'5 4.5
2016-Aug-18 23:33N 01°13' E 103°49'8 8.0
2016-Aug-18 22:33N 01°15' E 103°56'3 3.0
2016-Aug-18 21:33N 01°16' E 103°59'  
2016-Aug-15 04:13N 22°34' E 114°18'6 3.3
2016-Aug-15 02:28N 22°31' E 114°23'21 4.9
2016-Aug-14 22:07N 22°18' E 114°06'3 4.6
2016-Aug-14 21:33N 22°20' E 114°07'0 0.1
2016-Aug-14 20:32N 22°20' E 114°07'0 0.0
2016-Aug-14 19:32N 22°20' E 114°07'0 0.0
2016-Aug-14 17:26N 22°20' E 114°07'0 0.0
2016-Aug-14 15:32N 22°20' E 114°07'0 0.0
2016-Aug-14 14:14N 22°20' E 114°07'0 0.0
2016-Aug-14 13:26N 22°20' E 114°07'0 0.1
2016-Aug-14 12:32N 22°20' E 114°07'0 0.1
2016-Aug-14 11:32N 22°20' E 114°07'4 4.1
2016-Aug-14 10:32N 22°21' E 114°03'10 9.9
2016-Aug-14 09:34N 22°25' E 113°53'3 3.5
2016-Aug-14 08:34N 22°28' E 113°52'0 0.0
2016-Aug-14 07:32N 22°28' E 113°52'0 0.0
2016-Aug-14 06:29N 22°28' E 113°52'0 0.0
2016-Aug-14 04:32N 22°28' E 113°52'0 0.0
2016-Aug-14 03:29N 22°28' E 113°52'0 0.0
2016-Aug-14 02:32N 22°28' E 113°52'0 0.0
2016-Aug-14 01:32N 22°28' E 113°52'0 0.0
2016-Aug-14 00:31N 22°28' E 113°52'0 0.0
2016-Aug-13 23:31N 22°28' E 113°52'0 0.0
2016-Aug-13 22:31N 22°28' E 113°52'0 0.0
2016-Aug-13 21:31N 22°28' E 113°52'0 0.0
2016-Aug-13 20:31N 22°28' E 113°52'0 0.0
2016-Aug-13 19:31N 22°28' E 113°52'0 0.0
2016-Aug-13 18:31N 22°28' E 113°52'0 0.0
2016-Aug-13 17:32N 22°28' E 113°52'4 4.6
2016-Aug-13 16:33N 22°24' E 113°54'11 8.9
2016-Aug-13 15:19N 22°20' E 114°05'34711.6
2016-Aug-12 09:20N 22°33' E 120°20'0 0.0
2016-Aug-12 08:32N 22°33' E 120°20'0 0.0
2016-Aug-12 07:32N 22°33' E 120°20'0 0.0
2016-Aug-12 06:26N 22°33' E 120°20'0 0.0
2016-Aug-12 05:28N 22°33' E 120°20'9 4.9
2016-Aug-12 03:33N 22°30' E 120°10'1 0.9
2016-Aug-12 02:33N 22°29' E 120°10'0 0.4
2016-Aug-12 01:30N 22°29' E 120°10'3 3.2
2016-Aug-12 00:33N 22°32' E 120°11'6 5.6
2016-Aug-11 23:33N 22°36' E 120°07'9 8.7
2016-Aug-11 22:33N 22°43' E 120°02'9 8.7
2016-Aug-11 21:33N 22°50' E 119°56'  
Track history (hours):
 
Tides and Currents Weather Stations Pressure Air Temp Water Temp Dewpoint Dewpoint Depression Visibility Wind Speed Wind Dir Waves Ship Positions

MSC Rania

Last reported at 2016-Aug-20 09:32 UTC. Time now 2016-Aug-28 18:53 UTC.
Position N 01°56' E 102°17'.
Warning: this ship's position is 8 days out of date.

Length 332 m; draft 12.6 m.

Type: Ship (hazmat cat A). MMSI: 371752000.

Date/timePositionNaut miles runAvg speedWind from/ knotsBaromVisibWave heightAir tempDewpointWater temp
2016-Aug-20 09:32N 01°56' E 102°17'2121.6
2016-Aug-20 08:33N 01°47' E 102°36'7417.3
2016-Aug-20 04:15N 01°15' E 103°43'3 0.2
2016-Aug-19 13:32N 01°16' E 103°46'0 0.0
2016-Aug-19 12:32N 01°16' E 103°46'0 0.0
2016-Aug-19 11:32N 01°16' E 103°46'0 0.0
2016-Aug-19 10:32N 01°16' E 103°46'0 0.0
2016-Aug-19 09:20N 01°16' E 103°46'0 0.0
2016-Aug-19 08:32N 01°16' E 103°46'0 0.0
2016-Aug-19 07:29N 01°16' E 103°46'0 0.0
2016-Aug-19 06:32N 01°16' E 103°46'0 0.0
2016-Aug-19 05:32N 01°16' E 103°46'0 0.0
2016-Aug-19 04:26N 01°16' E 103°46'0 0.0
2016-Aug-19 03:26N 01°16' E 103°46'0 0.0
2016-Aug-19 02:32N 01°16' E 103°46'0 0.0
2016-Aug-19 01:32N 01°16' E 103°46'0 0.0
2016-Aug-19 00:33N 01°16' E 103°46'5 4.5
2016-Aug-18 23:33N 01°13' E 103°49'8 8.0
2016-Aug-18 22:33N 01°15' E 103°56'3 3.0
2016-Aug-18 21:33N 01°16' E 103°59'  
2016-Aug-15 04:13N 22°34' E 114°18'6 3.3
2016-Aug-15 02:28N 22°31' E 114°23'21 4.9
2016-Aug-14 22:07N 22°18' E 114°06'3 4.6
2016-Aug-14 21:33N 22°20' E 114°07'0 0.1
2016-Aug-14 20:32N 22°20' E 114°07'0 0.0
2016-Aug-14 19:32N 22°20' E 114°07'0 0.0
2016-Aug-14 17:26N 22°20' E 114°07'0 0.0
2016-Aug-14 15:32N 22°20' E 114°07'0 0.0
2016-Aug-14 14:14N 22°20' E 114°07'0 0.0
2016-Aug-14 13:26N 22°20' E 114°07'0 0.1
2016-Aug-14 12:32N 22°20' E 114°07'0 0.1
2016-Aug-14 11:32N 22°20' E 114°07'4 4.1
2016-Aug-14 10:32N 22°21' E 114°03'10 9.9
2016-Aug-14 09:34N 22°25' E 113°53'3 3.5
2016-Aug-14 08:34N 22°28' E 113°52'0 0.0
2016-Aug-14 07:32N 22°28' E 113°52'0 0.0
2016-Aug-14 06:29N 22°28' E 113°52'0 0.0
2016-Aug-14 04:32N 22°28' E 113°52'0 0.0
2016-Aug-14 03:29N 22°28' E 113°52'0 0.0
2016-Aug-14 02:32N 22°28' E 113°52'0 0.0
2016-Aug-14 01:32N 22°28' E 113°52'0 0.0
2016-Aug-14 00:31N 22°28' E 113°52'0 0.0
2016-Aug-13 23:31N 22°28' E 113°52'0 0.0
2016-Aug-13 22:31N 22°28' E 113°52'0 0.0
2016-Aug-13 21:31N 22°28' E 113°52'0 0.0
2016-Aug-13 20:31N 22°28' E 113°52'0 0.0
2016-Aug-13 19:31N 22°28' E 113°52'0 0.0
2016-Aug-13 18:31N 22°28' E 113°52'0 0.0
2016-Aug-13 17:32N 22°28' E 113°52'4 4.6
2016-Aug-13 16:33N 22°24' E 113°54'11 8.9
2016-Aug-13 15:19N 22°20' E 114°05'34711.6
2016-Aug-12 09:20N 22°33' E 120°20'0 0.0
2016-Aug-12 08:32N 22°33' E 120°20'0 0.0
2016-Aug-12 07:32N 22°33' E 120°20'0 0.0
2016-Aug-12 06:26N 22°33' E 120°20'0 0.0
2016-Aug-12 05:28N 22°33' E 120°20'9 4.9
2016-Aug-12 03:33N 22°30' E 120°10'1 0.9
2016-Aug-12 02:33N 22°29' E 120°10'0 0.4
2016-Aug-12 01:30N 22°29' E 120°10'3 3.2
2016-Aug-12 00:33N 22°32' E 120°11'6 5.6
2016-Aug-11 23:33N 22°36' E 120°07'9 8.7
2016-Aug-11 22:33N 22°43' E 120°02'9 8.7
2016-Aug-11 21:33N 22°50' E 119°56'  

Dump ship's entire track history